ADDS METAR Data INFO
IDs: Format: Raw Decoded Include TAF

Data at: 1031 UTC 23 Feb 2018

KPIL 231017Z AUTO 10003KT 3SM BR BKN003 OVC010 16/14 A3011 RMK AO2 T01560139
KPIL 231002Z AUTO 00000KT 2 1/2SM BR BKN002 OVC010 15/14 A3012 RMK AO2 T01500139
KPIL 230953Z AUTO 00000KT 1 3/4SM BR OVC002 15/14 A3012 RMK AO2 SLP199 T01500139
KPIL 230939Z AUTO 04003KT 1 1/2SM BR OVC003 15/14 A3013 RMK AO2 T01500139
KPIL 230915Z AUTO 32005KT 2 1/2SM BR OVC004 15/14 A3015 RMK AO2 T01500139
KPIL 230853Z AUTO 33005KT 1 1/2SM BR OVC002 14/13 A3015 RMK AO2 SLP207 T01440133 58005
KPIL 230837Z AUTO 32006KT 1 3/4SM BR OVC002 14/13 A3015 RMK AO2 T01440133
KPIL 230753Z AUTO 30008KT 2 1/2SM BR OVC002 14/13 A3016 RMK AO2 SLP212 T01440133
KPIL 230735Z AUTO 31007KT 2SM BR OVC002 15/14 A3016 RMK AO2 T01500139
KPIL 230653Z AUTO 30009KT 1 3/4SM BR OVC002 15/14 A3016 RMK AO2 SLP212 T01500144
KPIL 230553Z AUTO 31008KT 1 1/4SM BR OVC002 16/15 A3016 RMK AO2 SLP212 T01610150 10172 20161 402220111 51005
KPIL 230544Z AUTO 31009KT 1SM BR OVC002 16/16 A3016 RMK AO2 T01610156
KPIL 230453Z AUTO 33006KT 1/2SM FG VV002 17/16 A3015 RMK AO2 SLP210 T01720161
KPIL 230353Z AUTO 02004KT 3/4SM BR VV003 17/16 A3015 RMK AO2 SLP210 T01720161
KPIL 230253Z AUTO 03008KT 1/2SM FG VV003 17/16 A3015 RMK AO2 SLP207 T01670156 53014
KPIL 230224Z AUTO 02007KT 3/4SM BR OVC002 16/15 A3014 RMK AO2 T01610150
KPIL 230153Z AUTO 01006KT 1 1/4SM BR OVC002 16/15 A3014 RMK AO2 SLP204 T01610150
KPIL 230053Z AUTO 03007KT 1 1/2SM BR OVC002 16/15 A3012 RMK AO2 SLP197 T01610150
KPIL 230016Z AUTO 02008KT 1 3/4SM BR OVC004 17/15 A3011 RMK AO2 T01670150
KPIL 230003Z AUTO 02007KT 2 1/2SM BR OVC004 17/15 A3011 RMK AO2 T01670150
KPIL 222353Z AUTO 03007KT 3SM BR OVC005 17/15 A3011 RMK AO2 SLP194 T01720150 10200 20156 53000
KPIL 222253Z AUTO 01008KT 6SM HZ OVC005 17/14 A3010 RMK AO2 SLP192 T01720144
KPIL 222153Z AUTO 01008KT 7SM OVC009 18/14 A3010 RMK AO2 SLP193 T01780144
KPIL 222131Z AUTO 02008KT 7SM OVC009 18/14 A3010 RMK AO2 T01830144
KPIL 222053Z AUTO 02007KT 9SM OVC013 19/14 A3010 RMK AO2 SLP194 T01940139 58026
KPIL 221953Z AUTO 32006KT 9SM OVC012 18/13 A3014 RMK AO2 SLP204 T01780128
KPIL 221853Z AUTO 34008KT 8SM OVC011 17/12 A3016 RMK AO2 SLP213 T01670122
KPIL 221819Z AUTO 31009KT 8SM OVC010 16/12 A3018 RMK AO2 T01610117
KPIL 221753Z AUTO 32009KT 8SM OVC008 16/12 A3018 RMK AO2 SLP220 60001 T01610117 10161 20111 50000
KPIL 221653Z AUTO 33010KT 7SM OVC005 14/11 A3019 RMK AO2 SLP224 T01390111
KPIL 221645Z AUTO 32010KT 7SM OVC005 13/11 A3020 RMK AO2 T01330111
KPIL 221553Z AUTO 31009KT 3SM BR OVC003 12/11 A3020 RMK AO2 SLP224 T01220106
KPIL 221453Z AUTO 32011KT 3SM BR OVC003 12/10 A3018 RMK AO2 RAB22E31 SLP220 P0000 60001 T01170100 51014
KPIL 221435Z AUTO 32010KT 3SM BR OVC003 11/10 A3018 RMK AO2 RAB22E31 P0000 T01110100
KPIL 221420Z AUTO 31012KT 2 1/2SM BR OVC003 11/09 A3017 RMK AO2 T01110094
KPIL 221353Z AUTO 31010KT 3SM BR OVC003 12/10 A3016 RMK AO2 SLP213 T01170100
KPIL 221326Z AUTO 32010KT 2 1/2SM BR OVC003 11/10 A3015 RMK AO2 T01110100
KPIL 221253Z AUTO 31012KT 4SM BR OVC003 12/11 A3014 RMK AO2 RAE11 SLP206 P0001 T01170106
KPIL 221153Z AUTO 32011KT 3SM -RA BR OVC003 12/11 A3013 RMK AO2 RAB16E26B44 SLP201 P0000 60000 T01220106 10222 20117 53006
KPIL 221053Z AUTO 31011KT 5SM BR OVC003 13/11 A3011 RMK AO2 SLP196 T01280111
KPIL 220953Z AUTO 31009KT 6SM BR OVC004 13/11 A3011 RMK AO2 RAB0854E12 SLP194 P0000 T01330111
KPIL 220853Z AUTO 32010KT 6SM BR OVC004 14/12 A3011 RMK AO2 SLP194 T01390117 50006
KPIL 220753Z AUTO 31009KT 6SM BR OVC004 16/14 A3012 RMK AO2 SLP198 T01560139
KPIL 220745Z AUTO 33013KT 5SM BR OVC004 16/14 A3011 RMK AO2 T01610139
KPIL 220653Z AUTO 31007KT 6SM BR BKN006 OVC029 20/18 A3010 RMK AO2 SLP193 T02000178
KPIL 220637Z AUTO 33003KT 5SM BR SCT006 OVC030 22/21 A3010 RMK AO2 T02220206
KPIL 220621Z AUTO 00000KT 5SM BR SCT023 OVC031 22/21 A3010 RMK AO2 T02220206
KPIL 220553Z AUTO 14008KT 5SM BR FEW006 OVC019 22/21 A3009 RMK AO2 SLP189 T02170206 10250 20217 402890211 51014
KPIL 220526Z AUTO 13006KT 5SM BR FEW006 BKN018 22/21 A3009 RMK AO2 T02220206
KPIL 220453Z AUTO 14008KT 5SM BR SCT015 BKN020 OVC029 22/21 A3009 RMK AO2 SLP188 T02220206
KPIL 220410Z AUTO 13008KT 5SM BR SCT005 BKN024 OVC029 22/21 A3009 RMK AO2 T02220206
KPIL 220353Z AUTO 13008KT 5SM BR BKN006 OVC025 23/21 A3008 RMK AO2 SLP186 T02280211
KPIL 220016Z AUTO 15012KT 5SM HZ OVC014 24/21 A2999 RMK AO2 T02440211
KPIL 212353Z AUTO 15018G22KT 5SM HZ BKN015 OVC026 25/21 A2999 RMK AO2 SLP153 60000 T02500211 10289 20250 53008
KPIL 212253Z AUTO 15016KT 6SM HZ BKN017 BKN023 OVC033 26/21 A2997 RMK AO2 SLP149 T02560211